createdAt,value
2019-04-14T00:01:04.309Z,6.35
2019-04-14T00:03:45.335Z,6.58
2019-04-14T00:06:15.899Z,6.31
2019-04-14T00:08:46.284Z,6.22
2019-04-14T00:11:16.822Z,6.21
2019-04-14T00:13:46.299Z,6.37
2019-04-14T00:16:16.358Z,6.55
2019-04-14T00:18:46.993Z,6.34
2019-04-14T00:21:17.262Z,6.54
2019-04-14T00:23:47.942Z,6.21
2019-04-14T00:26:33.498Z,5.91
2019-04-14T00:29:04.611Z,6.26
2019-04-14T00:31:34.912Z,6.08
2019-04-14T00:34:09.687Z,5.91
2019-04-14T00:36:52.859Z,5.85
2019-04-14T00:39:29.827Z,6.18
2019-04-14T00:42:10.212Z,6.38
2019-04-14T00:44:41.213Z,6.01
2019-04-14T00:47:15.747Z,5.84
2019-04-14T00:49:46.256Z,5.88
2019-04-14T00:52:16.834Z,5.86
2019-04-14T00:54:47.851Z,5.87
2019-04-14T00:57:18.113Z,5.82
2019-04-14T00:59:48.720Z,5.72
2019-04-14T01:02:19.310Z,5.86
2019-04-14T01:04:49.106Z,5.84
2019-04-14T01:07:19.576Z,6.06
2019-04-14T01:09:48.984Z,5.92
2019-04-14T01:12:19.450Z,5.82
2019-04-14T01:14:49.581Z,6.05
2019-04-14T01:17:19.892Z,5.94
2019-04-14T01:19:50.535Z,5.90
2019-04-14T01:22:20.589Z,6.14
2019-04-14T01:24:51.036Z,5.81
2019-04-14T01:27:21.092Z,6.12
2019-04-14T01:29:51.594Z,6.05
2019-04-14T01:32:21.915Z,6.01
2019-04-14T01:34:53.655Z,6.09
2019-04-14T01:37:22.566Z,6.08
2019-04-14T01:39:52.502Z,5.89
2019-04-14T01:42:23.011Z,6.61
2019-04-14T01:44:52.572Z,6.25
2019-04-14T01:47:22.710Z,6.85
2019-04-14T01:49:53.041Z,6.15
2019-04-14T01:52:27.458Z,6.18
2019-04-14T01:55:16.311Z,5.95
2019-04-14T01:57:50.335Z,5.96
2019-04-14T02:00:22.725Z,5.83
2019-04-14T02:02:53.050Z,5.81
2019-04-14T02:05:23.554Z,5.57
2019-04-14T02:07:53.778Z,5.86
2019-04-14T02:10:23.849Z,5.72
2019-04-14T02:12:54.215Z,6.03
2019-04-14T02:15:24.440Z,5.79
2019-04-14T02:17:54.649Z,5.94
2019-04-14T02:20:25.065Z,5.88
2019-04-14T02:22:55.316Z,5.78
2019-04-14T02:25:25.300Z,5.83
2019-04-14T02:27:55.849Z,5.87
2019-04-14T02:30:32.674Z,5.75
2019-04-14T02:33:23.584Z,5.77
2019-04-14T02:35:55.173Z,5.56
2019-04-14T02:38:34.483Z,5.86
2019-04-14T02:41:03.017Z,6.00
2019-04-14T02:53:42.746Z,6.04
2019-04-14T03:01:19.725Z,5.73
2019-04-14T03:03:41.020Z,5.62
2019-04-14T03:06:13.010Z,5.72
2019-04-14T03:11:19.756Z,5.96
2019-04-14T03:13:51.091Z,5.85
2019-04-14T03:16:27.221Z,5.92
2019-04-14T03:21:29.954Z,5.89
2019-04-14T03:24:07.005Z,5.63
2019-04-14T03:26:45.093Z,5.81
2019-04-14T03:29:23.383Z,5.74
2019-04-14T03:34:33.799Z,5.77
2019-04-14T03:39:24.896Z,5.47
2019-04-14T03:42:00.910Z,5.55
2019-04-14T03:44:34.912Z,5.61
2019-04-14T03:47:10.946Z,5.67
2019-04-14T03:49:32.062Z,5.43
2019-04-14T03:51:57.956Z,5.65
2019-04-14T03:54:27.071Z,5.43
2019-04-14T03:56:51.442Z,5.59
2019-04-14T03:59:21.847Z,5.55
2019-04-14T04:01:52.311Z,5.74
2019-04-14T04:04:22.722Z,5.46
2019-04-14T04:06:53.239Z,5.36
2019-04-14T04:09:25.711Z,5.31
2019-04-14T04:11:56.303Z,5.18
2019-04-14T04:14:26.982Z,5.36
2019-04-14T04:17:07.972Z,5.85
2019-04-14T04:19:45.060Z,5.61
2019-04-14T04:22:17.192Z,5.41
2019-04-14T04:24:48.200Z,5.19
2019-04-14T04:27:28.732Z,5.47
2019-04-14T04:30:08.762Z,5.43
2019-04-14T04:32:54.335Z,5.44
2019-04-14T04:35:31.134Z,5.77
2019-04-14T04:38:18.115Z,5.91
2019-04-14T04:40:48.520Z,5.81
2019-04-14T04:43:18.932Z,5.84
2019-04-14T04:45:49.458Z,5.47
2019-04-14T04:48:19.637Z,5.68
2019-04-14T04:50:49.894Z,5.65
2019-04-14T04:53:20.186Z,5.66
2019-04-14T04:55:50.373Z,5.75
2019-04-14T04:58:20.075Z,6.06
2019-04-14T05:00:52.585Z,5.79
2019-04-14T05:03:21.142Z,5.74
2019-04-14T05:06:26.701Z,5.72
2019-04-14T05:09:12.475Z,5.64
2019-04-14T05:11:44.725Z,5.44
2019-04-14T05:14:15.801Z,5.46
2019-04-14T05:16:46.124Z,5.61
2019-04-14T05:19:23.785Z,5.46
2019-04-14T05:21:47.388Z,5.55
2019-04-14T05:24:17.904Z,5.55
2019-04-14T05:26:48.391Z,5.55
2019-04-14T05:29:18.900Z,5.60
2019-04-14T05:31:49.057Z,5.56
2019-04-14T05:34:19.456Z,5.54
2019-04-14T05:36:50.019Z,5.56
2019-04-14T05:39:19.981Z,5.54
2019-04-14T05:42:01.497Z,5.49
2019-04-14T05:44:20.801Z,5.64
2019-04-14T05:46:51.386Z,5.62
2019-04-14T05:49:30.604Z,5.54
2019-04-14T05:51:52.448Z,5.93
2019-04-14T05:54:23.179Z,5.93
2019-04-14T05:56:53.668Z,6.11
2019-04-14T05:59:24.328Z,5.75
2019-04-14T06:01:54.756Z,5.58
2019-04-14T06:04:24.371Z,5.52
2019-04-14T06:06:53.983Z,5.55
2019-04-14T06:09:24.330Z,5.60
2019-04-14T06:11:53.720Z,6.10
2019-04-14T06:14:23.112Z,6.44
2019-04-14T06:16:52.494Z,6.29
2019-04-14T06:19:21.876Z,6.70
2019-04-14T06:21:51.271Z,6.14
2019-04-14T06:24:20.653Z,5.87
2019-04-14T06:26:50.051Z,6.02
2019-04-14T06:29:19.739Z,5.80
2019-04-14T06:31:50.885Z,5.85
2019-04-14T06:34:27.931Z,6.37
2019-04-14T06:36:58.965Z,6.38
2019-04-14T06:39:41.727Z,6.37
2019-04-14T06:42:11.148Z,5.95
2019-04-14T06:44:40.535Z,6.02
2019-04-14T06:47:10.000Z,6.46
2019-04-14T06:49:48.946Z,6.72
2019-04-14T06:52:10.757Z,6.70
2019-04-14T06:54:40.150Z,6.88
2019-04-14T06:57:10.188Z,6.17
2019-04-14T06:59:40.538Z,6.51
2019-04-14T07:02:10.755Z,6.35
2019-04-14T07:04:40.968Z,6.33
2019-04-14T07:07:11.212Z,6.71
2019-04-14T07:09:41.504Z,6.59
2019-04-14T07:12:11.783Z,6.39
2019-04-14T07:14:41.985Z,6.13
2019-04-14T07:17:12.094Z,6.68
2019-04-14T07:19:42.417Z,6.19
2019-04-14T07:22:12.530Z,6.42
2019-04-14T07:24:42.851Z,6.42
2019-04-14T07:27:13.070Z,6.53
2019-04-14T07:29:50.999Z,6.46
2019-04-14T07:32:31.111Z,6.68
2019-04-14T07:35:10.734Z,6.64
2019-04-14T07:37:44.440Z,6.42
2019-04-14T07:40:32.753Z,6.84
2019-04-14T07:43:03.785Z,7.08
2019-04-14T07:45:34.803Z,6.71
2019-04-14T07:48:05.910Z,6.44
2019-04-14T07:50:36.943Z,7.01
2019-04-14T07:53:15.510Z,7.02
2019-04-14T07:55:58.449Z,6.56
2019-04-14T07:58:44.363Z,6.59
2019-04-14T08:01:15.392Z,7.38
2019-04-14T08:03:46.418Z,6.90
2019-04-14T08:06:16.080Z,7.28
2019-04-14T08:08:47.358Z,8.29
2019-04-14T08:11:17.855Z,8.09
2019-04-14T08:13:47.833Z,6.96
2019-04-14T08:16:18.041Z,7.12
2019-04-14T08:18:48.317Z,7.17
2019-04-14T08:21:18.484Z,7.38
2019-04-14T08:23:48.907Z,7.25
2019-04-14T08:26:19.049Z,7.47
2019-04-14T08:28:49.372Z,7.80
2019-04-14T08:31:19.499Z,7.80
2019-04-14T08:33:50.108Z,7.56
2019-04-14T08:36:20.124Z,7.71
2019-04-14T08:38:50.426Z,7.46
2019-04-14T08:41:20.715Z,7.19
2019-04-14T08:44:08.465Z,7.43
2019-04-14T08:46:55.900Z,8.12
2019-04-14T08:49:26.930Z,8.20
2019-04-14T08:51:57.959Z,7.76
2019-04-14T08:54:28.982Z,7.31
2019-04-14T08:57:02.408Z,7.91
2019-04-14T08:59:39.458Z,7.88
2019-04-14T09:02:13.516Z,7.43
2019-04-14T09:04:56.398Z,7.72
2019-04-14T09:07:27.447Z,7.72
2019-04-14T09:10:01.425Z,7.96
2019-04-14T09:12:32.528Z,7.72
2019-04-14T09:15:01.942Z,8.32
2019-04-14T09:17:31.393Z,9.13
2019-04-14T09:20:00.800Z,9.00
2019-04-14T09:22:30.539Z,8.83
2019-04-14T09:24:59.948Z,9.18
2019-04-14T09:27:29.412Z,10.13
2019-04-14T09:29:58.795Z,8.24
2019-04-14T09:32:28.732Z,8.65
2019-04-14T09:34:58.138Z,7.73
2019-04-14T09:37:27.590Z,8.03
2019-04-14T09:39:56.972Z,8.78
2019-04-14T09:42:26.784Z,8.06
2019-04-14T09:44:57.152Z,8.45
2019-04-14T09:47:27.439Z,8.32
2019-04-14T09:49:57.709Z,7.51
2019-04-14T09:52:27.820Z,7.53
2019-04-14T09:54:58.259Z,7.69
2019-04-14T09:57:28.379Z,7.80
2019-04-14T09:59:58.749Z,8.20
2019-04-14T10:02:28.945Z,8.53
2019-04-14T10:04:59.183Z,8.21
2019-04-14T10:07:29.372Z,7.87
2019-04-14T10:09:59.632Z,7.94
2019-04-14T10:12:29.817Z,7.98
2019-04-14T10:15:00.306Z,8.12
2019-04-14T10:17:30.378Z,7.90
2019-04-14T10:20:00.683Z,7.99
2019-04-14T10:22:34.065Z,7.88
2019-04-14T10:25:01.990Z,8.65
2019-04-14T10:27:31.401Z,8.70
2019-04-14T10:30:01.782Z,8.24
2019-04-14T10:32:32.792Z,8.29
2019-04-14T10:35:02.255Z,8.00
2019-04-14T10:37:32.323Z,7.94
2019-04-14T10:40:06.255Z,7.98
2019-04-14T10:42:35.934Z,8.38
2019-04-14T10:45:06.736Z,8.33
2019-04-14T10:47:36.269Z,8.82
2019-04-14T10:50:06.304Z,8.97
2019-04-14T10:52:35.685Z,9.48
2019-04-14T10:55:07.217Z,9.18
2019-04-14T10:57:36.605Z,8.14
2019-04-14T11:00:10.145Z,8.04
2019-04-14T11:02:39.615Z,8.01
2019-04-14T11:05:09.538Z,7.95
2019-04-14T11:07:38.998Z,8.19
2019-04-14T11:10:09.814Z,7.96
2019-04-14T11:12:39.469Z,7.82
2019-04-14T11:15:09.982Z,8.78
2019-04-14T11:17:39.396Z,8.72
2019-04-14T11:20:09.292Z,8.23
2019-04-14T11:22:38.968Z,8.37
2019-04-14T11:25:08.347Z,8.25
2019-04-14T11:27:37.734Z,8.28
2019-04-14T11:30:09.526Z,8.43
2019-04-14T11:32:58.998Z,8.74
2019-04-14T11:35:32.936Z,9.30
2019-04-14T11:38:04.003Z,8.62
2019-04-14T11:40:37.704Z,8.51
2019-04-14T11:43:07.096Z,8.52
2019-04-14T11:45:36.479Z,8.45
2019-04-14T11:48:06.098Z,8.52
2019-04-14T11:50:35.500Z,8.43
2019-04-14T11:53:05.044Z,7.84
2019-04-14T11:55:34.425Z,8.63
2019-04-14T11:58:03.966Z,7.94
2019-04-14T12:00:51.296Z,8.54
2019-04-14T12:03:22.327Z,8.19
2019-04-14T12:06:09.591Z,8.66
2019-04-14T12:08:56.390Z,8.34
2019-04-14T12:11:25.853Z,8.71
2019-04-14T12:13:55.266Z,9.23
2019-04-14T12:16:24.724Z,8.53
2019-04-14T12:18:54.117Z,9.11
2019-04-14T12:21:23.504Z,8.32
2019-04-14T12:23:52.887Z,7.96
2019-04-14T12:26:22.394Z,8.15
2019-04-14T12:28:51.793Z,8.46
2019-04-14T12:31:21.856Z,8.09
2019-04-14T12:33:51.228Z,8.35
2019-04-14T12:36:21.068Z,8.45
2019-04-14T12:38:50.450Z,8.08
2019-04-14T12:41:37.695Z,8.74
2019-04-14T12:44:08.771Z,9.23
2019-04-14T12:46:39.801Z,8.36
2019-04-14T12:49:16.802Z,8.49
2019-04-14T12:51:56.576Z,10.02
2019-04-14T12:54:27.029Z,9.48
2019-04-14T12:56:56.411Z,8.85
2019-04-14T12:59:26.176Z,8.98
2019-04-14T13:02:06.131Z,8.60
2019-04-14T13:04:35.602Z,8.35
2019-04-14T13:07:06.188Z,8.16
2019-04-14T13:09:35.914Z,8.03
2019-04-14T13:12:05.448Z,8.20
2019-04-14T13:14:34.918Z,8.42
2019-04-14T13:17:04.757Z,8.23
2019-04-14T13:19:34.132Z,8.10
2019-04-14T13:22:03.534Z,8.05
2019-04-14T13:24:32.915Z,9.09
2019-04-14T13:27:02.303Z,8.90
2019-04-14T13:29:31.754Z,8.59
2019-04-14T13:32:01.144Z,8.24
2019-04-14T13:34:30.613Z,8.53
2019-04-14T13:37:00.009Z,8.24
2019-04-14T13:39:29.399Z,8.40
2019-04-14T13:41:58.962Z,8.54
2019-04-14T13:44:28.360Z,9.02
2019-04-14T13:46:57.745Z,8.40
2019-04-14T13:49:27.171Z,8.61
2019-04-14T13:51:58.199Z,7.96
2019-04-14T13:54:27.596Z,8.10
2019-04-14T13:56:57.003Z,8.15
2019-04-14T13:59:26.959Z,8.26
2019-04-14T14:01:56.404Z,8.44
2019-04-14T14:04:25.788Z,8.25
2019-04-14T14:06:55.177Z,8.43
2019-04-14T14:09:24.557Z,8.14
2019-04-14T14:11:55.904Z,8.46
2019-04-14T14:14:32.779Z,8.47
2019-04-14T14:17:20.007Z,8.62
2019-04-14T14:20:06.070Z,8.54
2019-04-14T14:22:37.385Z,8.44
2019-04-14T14:25:14.648Z,8.44
2019-04-14T14:27:44.050Z,8.60
2019-04-14T14:30:15.218Z,8.62
2019-04-14T14:32:44.634Z,9.01
2019-04-14T14:35:14.069Z,8.89
2019-04-14T14:37:43.450Z,8.82
2019-04-14T14:40:13.010Z,8.82
2019-04-14T14:42:42.392Z,8.36
2019-04-14T14:45:17.055Z,8.21
2019-04-14T14:47:48.082Z,8.20
2019-04-14T14:50:24.972Z,8.16
2019-04-14T14:52:54.356Z,8.04
2019-04-14T14:55:23.747Z,7.86
2019-04-14T14:57:53.139Z,7.97
2019-04-14T15:00:24.228Z,8.40
2019-04-14T15:02:53.625Z,8.42
2019-04-14T15:05:24.145Z,8.38
2019-04-14T15:07:53.535Z,9.06
2019-04-14T15:10:22.915Z,8.81
2019-04-14T15:12:52.317Z,8.74
2019-04-14T15:15:21.842Z,8.57
2019-04-14T15:17:51.299Z,9.19
2019-04-14T15:20:20.768Z,8.79
2019-04-14T15:22:52.345Z,9.01
2019-04-14T15:25:21.312Z,8.83
2019-04-14T15:27:50.694Z,8.95
2019-04-14T15:30:21.671Z,10.07
2019-04-14T15:32:52.425Z,9.06
2019-04-14T15:35:21.888Z,8.73
2019-04-14T15:37:51.356Z,8.66
2019-04-14T15:40:20.905Z,9.09
2019-04-14T15:42:50.308Z,8.73
2019-04-14T15:45:19.708Z,8.81
2019-04-14T15:47:49.102Z,9.00
2019-04-14T15:50:19.644Z,8.91
2019-04-14T15:52:49.102Z,8.68
2019-04-14T15:55:19.368Z,8.41
2019-04-14T15:57:56.113Z,8.52
2019-04-14T16:00:43.391Z,8.77
2019-04-14T16:03:14.495Z,8.82
2019-04-14T16:05:45.520Z,8.50
2019-04-14T16:08:19.295Z,9.05
2019-04-14T16:10:50.326Z,8.76
2019-04-14T16:13:21.365Z,8.64
2019-04-14T16:16:04.393Z,8.47
2019-04-14T16:18:38.108Z,8.35
2019-04-14T16:21:07.488Z,7.96
2019-04-14T16:23:49.711Z,7.83
2019-04-14T16:26:15.921Z,7.89
2019-04-14T16:28:49.962Z,8.09
2019-04-14T16:31:32.941Z,8.32
2019-04-14T16:34:03.964Z,8.03
2019-04-14T16:36:33.431Z,8.04
2019-04-14T16:39:03.451Z,8.60
2019-04-14T16:41:34.482Z,8.44
2019-04-14T16:44:04.221Z,8.42
2019-04-14T16:46:33.874Z,8.09
2019-04-14T16:49:03.331Z,8.14
2019-04-14T16:51:40.232Z,8.04
2019-04-14T16:54:14.102Z,8.01
2019-04-14T16:57:01.278Z,8.28
2019-04-14T16:59:30.753Z,8.06
2019-04-14T17:02:10.359Z,7.99
2019-04-14T17:04:31.880Z,7.70
2019-04-14T17:07:01.333Z,7.78
2019-04-14T17:09:30.913Z,7.84
2019-04-14T17:12:00.344Z,7.66
2019-04-14T17:14:46.281Z,7.70
2019-04-14T17:17:26.277Z,7.72
2019-04-14T17:20:02.888Z,7.57
2019-04-14T17:22:35.536Z,7.71
2019-04-14T17:25:08.479Z,7.90
2019-04-14T17:27:43.025Z,7.82
2019-04-14T17:30:30.051Z,7.81
2019-04-14T17:33:04.049Z,8.14
2019-04-14T17:35:51.658Z,8.17
2019-04-14T17:38:39.180Z,8.20
2019-04-14T17:41:15.807Z,7.88
2019-04-14T17:43:47.011Z,8.00
2019-04-14T17:46:26.821Z,7.95
2019-04-14T17:49:03.654Z,7.97
2019-04-14T17:51:34.741Z,7.70
2019-04-14T17:54:14.945Z,7.80
2019-04-14T17:56:48.678Z,7.80
2019-04-14T17:59:25.332Z,8.05
2019-04-14T18:02:02.044Z,8.05
2019-04-14T18:04:36.144Z,8.14
2019-04-14T18:07:07.181Z,8.11
2019-04-14T18:09:54.396Z,8.12
2019-04-14T18:12:27.924Z,8.12
2019-04-14T18:15:04.775Z,8.09
2019-04-14T18:17:35.820Z,8.30
2019-04-14T18:20:20.739Z,8.22
2019-04-14T18:22:51.107Z,8.19
2019-04-14T18:25:20.487Z,7.99
2019-04-14T18:27:51.526Z,8.00
2019-04-14T18:30:25.225Z,7.83
2019-04-14T18:33:09.260Z,7.98
2019-04-14T18:35:55.645Z,7.87
2019-04-14T18:38:32.187Z,7.90
2019-04-14T18:41:12.012Z,7.76
2019-04-14T18:43:43.060Z,7.85
2019-04-14T18:46:14.074Z,7.98
2019-04-14T18:48:45.111Z,7.88
2019-04-14T18:51:22.091Z,7.75
2019-04-14T18:53:56.542Z,7.76
2019-04-14T18:56:43.812Z,7.99
2019-04-14T18:59:31.513Z,7.90
2019-04-14T19:02:01.796Z,7.81
2019-04-14T19:04:31.195Z,7.69
2019-04-14T19:07:00.670Z,7.78
2019-04-14T19:09:32.163Z,7.82
2019-04-14T19:12:05.889Z,7.84
2019-04-14T19:14:36.921Z,7.61
2019-04-14T19:17:10.707Z,7.63
2019-04-14T19:19:41.736Z,7.81
2019-04-14T19:22:11.145Z,7.77
2019-04-14T19:24:40.542Z,7.61
2019-04-14T19:27:09.939Z,7.60
2019-04-14T19:29:39.334Z,7.51
2019-04-14T19:32:08.739Z,7.68
2019-04-14T19:34:38.133Z,7.68
2019-04-14T19:37:07.527Z,7.67
2019-04-14T19:39:37.892Z,8.15
2019-04-14T19:42:07.286Z,8.22
2019-04-14T19:44:36.696Z,8.04
2019-04-14T19:47:06.071Z,7.95
2019-04-14T19:49:35.483Z,7.97
2019-04-14T19:52:04.944Z,7.85
2019-04-14T19:54:35.304Z,7.67
2019-04-14T19:57:04.813Z,7.45
2019-04-14T19:59:34.205Z,7.86
2019-04-14T20:02:03.644Z,7.64
2019-04-14T20:04:33.032Z,7.23
2019-04-14T20:07:03.487Z,7.40
2019-04-14T20:09:32.953Z,7.36
2019-04-14T20:12:02.407Z,7.54
2019-04-14T20:14:31.805Z,7.64
2019-04-14T20:17:19.011Z,7.87
2019-04-14T20:19:52.454Z,8.04
2019-04-14T20:22:26.744Z,8.23
2019-04-14T20:25:10.384Z,7.68
2019-04-14T20:30:49.334Z,7.52
2019-04-14T20:33:19.494Z,7.90
2019-04-14T20:35:48.884Z,8.00
2019-04-14T20:38:18.280Z,8.09
2019-04-14T20:40:47.714Z,7.86
2019-04-14T20:43:17.053Z,7.90
2019-04-14T20:45:46.446Z,7.84
2019-04-14T20:48:15.862Z,7.57
2019-04-14T20:50:45.294Z,7.52
2019-04-14T20:53:14.709Z,7.57
2019-04-14T20:55:47.360Z,7.95
2019-04-14T20:58:15.328Z,8.39
2019-04-14T21:00:44.790Z,8.31
2019-04-14T21:03:32.278Z,8.21
2019-04-14T21:06:03.297Z,7.98
2019-04-14T21:08:51.692Z,7.61
2019-04-14T21:11:40.925Z,8.39
2019-04-14T21:16:55.503Z,7.86
2019-04-14T21:19:35.389Z,8.10
2019-04-14T21:22:15.479Z,8.22
2019-04-14T21:24:58.667Z,8.26
2019-04-14T21:27:44.807Z,8.12
2019-04-14T21:30:29.639Z,8.04
2019-04-14T21:33:09.207Z,7.69
2019-04-14T21:35:42.936Z,7.63
2019-04-14T21:38:14.140Z,7.47
2019-04-14T21:40:53.952Z,8.03
2019-04-14T21:43:23.330Z,7.91
2019-04-14T21:45:52.705Z,7.41
2019-04-14T21:48:22.090Z,7.75
2019-04-14T21:50:57.122Z,7.46
2019-04-14T21:53:27.242Z,7.79
2019-04-14T21:55:57.252Z,7.57
2019-04-14T21:58:29.143Z,7.77
2019-04-14T22:01:34.121Z,7.55
2019-04-14T22:04:08.364Z,7.97
2019-04-14T22:06:39.367Z,7.42
2019-04-14T22:09:19.460Z,7.35
2019-04-14T22:11:48.989Z,7.10
2019-04-14T22:14:18.382Z,6.98
2019-04-14T22:16:47.774Z,6.98
2019-04-14T22:19:17.228Z,7.09
2019-04-14T22:21:47.514Z,7.34
2019-04-14T22:24:17.036Z,7.42
2019-04-14T22:26:46.412Z,7.71
2019-04-14T22:29:15.866Z,7.66
2019-04-14T22:31:45.252Z,6.94
2019-04-14T22:34:14.634Z,6.87
2019-04-14T22:36:44.002Z,7.43
2019-04-14T22:39:18.179Z,7.86
2019-04-14T22:41:47.548Z,7.79
2019-04-14T22:44:16.953Z,7.68
2019-04-14T22:46:46.329Z,7.72
2019-04-14T22:49:15.997Z,7.60
2019-04-14T22:51:45.380Z,7.46
2019-04-14T22:54:15.098Z,7.20
2019-04-14T22:56:44.758Z,6.97
2019-04-14T22:59:14.168Z,7.27
2019-04-14T23:01:45.187Z,7.24
2019-04-14T23:04:24.956Z,7.71
2019-04-14T23:06:58.788Z,7.70
2019-04-14T23:09:29.817Z,7.83
2019-04-14T23:12:06.563Z,7.67
2019-04-14T23:14:37.585Z,7.30
2019-04-14T23:17:24.877Z,7.50
2019-04-14T23:20:02.761Z,7.81
2019-04-14T23:22:33.850Z,7.27
2019-04-14T23:25:03.299Z,6.93
2019-04-14T23:27:32.751Z,6.94
2019-04-14T23:30:03.159Z,7.18
2019-04-14T23:32:32.719Z,6.96
2019-04-14T23:35:02.102Z,7.12
2019-04-14T23:37:31.470Z,7.23
2019-04-14T23:40:00.859Z,7.34
2019-04-14T23:42:31.190Z,7.43
2019-04-14T23:45:00.578Z,7.54
2019-04-14T23:47:30.017Z,7.15
2019-04-14T23:49:59.684Z,7.33
2019-04-14T23:52:29.063Z,7.12
2019-04-14T23:54:58.439Z,7.51
2019-04-14T23:57:27.894Z,7.14
2019-04-14T23:59:57.549Z,7.78
